sensor_id;sensor_type;location;lat;lon;timestamp;pressure;altitude;pressure_sealevel;temperature;humidity
25130;BME280;13308;50.860;13.664;2023-06-10T05:05:31;96749.38;;;15.88;100.00
25130;BME280;13308;50.860;13.664;2023-06-10T05:07:56;96754.63;;;15.86;100.00
25130;BME280;13308;50.860;13.664;2023-06-10T05:10:22;96756.44;;;16.02;100.00
25130;BME280;13308;50.860;13.664;2023-06-10T05:12:47;96754.88;;;16.01;100.00
25130;BME280;13308;50.860;13.664;2023-06-10T05:15:12;96758.50;;;16.10;100.00
25130;BME280;13308;50.860;13.664;2023-06-10T05:17:38;96762.31;;;16.34;100.00
25130;BME280;13308;50.860;13.664;2023-06-10T05:20:04;96758.63;;;16.37;100.00
25130;BME280;13308;50.860;13.664;2023-06-10T05:22:29;96762.56;;;16.49;100.00
25130;BME280;13308;50.860;13.664;2023-06-10T05:24:54;96758.41;;;16.53;100.00
25130;BME280;13308;50.860;13.664;2023-06-10T05:27:20;96762.19;;;16.77;100.00
25130;BME280;13308;50.860;13.664;2023-06-10T05:29:46;96761.28;;;16.89;100.00
25130;BME280;13308;50.860;13.664;2023-06-10T05:32:11;96762.41;;;17.10;100.00
25130;BME280;13308;50.860;13.664;2023-06-10T05:34:37;96769.09;;;17.30;100.00
25130;BME280;13308;50.860;13.664;2023-06-10T05:37:02;96773.31;;;17.35;100.00
25130;BME280;13308;50.860;13.664;2023-06-10T05:39:28;96764.16;;;17.43;100.00
25130;BME280;13308;50.860;13.664;2023-06-10T05:41:53;96769.31;;;17.54;100.00
25130;BME280;13308;50.860;13.664;2023-06-10T05:44:18;96758.28;;;17.59;100.00
25130;BME280;13308;50.860;13.664;2023-06-10T05:46:44;96777.19;;;17.91;100.00
25130;BME280;13308;50.860;13.664;2023-06-10T05:49:09;96778.06;;;18.06;100.00
25130;BME280;13308;50.860;13.664;2023-06-10T05:51:34;96780.81;;;18.24;100.00
25130;BME280;13308;50.860;13.664;2023-06-10T05:54:01;96785.13;;;18.43;100.00
25130;BME280;13308;50.860;13.664;2023-06-10T05:56:26;96783.25;;;18.58;100.00
25130;BME280;13308;50.860;13.664;2023-06-10T05:58:51;96786.16;;;18.64;100.00
25130;BME280;13308;50.860;13.664;2023-06-10T06:01:17;96785.44;;;18.87;100.00
25130;BME280;13308;50.860;13.664;2023-06-10T06:03:42;96783.78;;;19.03;100.00
25130;BME280;13308;50.860;13.664;2023-06-10T06:06:07;96785.66;;;19.30;100.00
25130;BME280;13308;50.860;13.664;2023-06-10T06:08:33;96784.78;;;19.62;100.00
25130;BME280;13308;50.860;13.664;2023-06-10T06:10:58;96775.00;;;19.81;98.69
25130;BME280;13308;50.860;13.664;2023-06-10T06:13:23;96778.66;;;19.87;98.93
25130;BME280;13308;50.860;13.664;2023-06-10T06:15:49;96782.78;;;20.15;99.55
25130;BME280;13308;50.860;13.664;2023-06-10T06:18:15;96785.22;;;20.22;97.76
25130;BME280;13308;50.860;13.664;2023-06-10T06:20:40;96792.94;;;20.41;96.15
25130;BME280;13308;50.860;13.664;2023-06-10T06:23:05;96791.28;;;20.64;91.39
25130;BME280;13308;50.860;13.664;2023-06-10T06:25:31;96787.00;;;20.83;90.31
25130;BME280;13308;50.860;13.664;2023-06-10T06:27:56;96790.78;;;20.94;93.90
25130;BME280;13308;50.860;13.664;2023-06-10T06:30:21;96798.88;;;21.07;90.53
25130;BME280;13308;50.860;13.664;2023-06-10T06:32:47;96797.91;;;21.30;89.99
25130;BME280;13308;50.860;13.664;2023-06-10T06:35:12;96797.31;;;21.40;90.67
25130;BME280;13308;50.860;13.664;2023-06-10T06:37:37;96797.72;;;21.53;90.16
25130;BME280;13308;50.860;13.664;2023-06-10T06:40:14;96804.69;;;22.23;86.32
25130;BME280;13308;50.860;13.664;2023-06-10T06:42:39;96808.41;;;22.60;84.54
25130;BME280;13308;50.860;13.664;2023-06-10T06:45:16;96804.50;;;23.20;82.72
25130;BME280;13308;50.860;13.664;2023-06-10T06:47:42;96813.00;;;23.73;79.80
25130;BME280;13308;50.860;13.664;2023-06-10T06:50:09;96816.84;;;23.70;78.27
25130;BME280;13308;50.860;13.664;2023-06-10T06:52:34;96829.66;;;23.29;77.23
25130;BME280;13308;50.860;13.664;2023-06-10T06:55:00;96826.31;;;22.63;80.50
25130;BME280;13308;50.860;13.664;2023-06-10T06:57:25;96821.78;;;22.00;81.94
25130;BME280;13308;50.860;13.664;2023-06-10T06:59:50;96836.53;;;21.55;85.11
25130;BME280;13308;50.860;13.664;2023-06-10T07:02:16;96835.28;;;21.56;87.59
25130;BME280;13308;50.860;13.664;2023-06-10T07:04:41;96840.16;;;21.41;89.36
25130;BME280;13308;50.860;13.664;2023-06-10T07:07:07;96845.13;;;21.31;89.30
25130;BME280;13308;50.860;13.664;2023-06-10T07:09:37;96839.94;;;21.24;90.37
25130;BME280;13308;50.860;13.664;2023-06-10T07:12:02;96832.41;;;21.16;89.36
25130;BME280;13308;50.860;13.664;2023-06-10T07:14:28;96851.53;;;21.32;89.67
25130;BME280;13308;50.860;13.664;2023-06-10T07:16:53;96855.59;;;21.31;89.94
25130;BME280;13308;50.860;13.664;2023-06-10T07:19:18;96855.19;;;21.38;87.44
25130;BME280;13308;50.860;13.664;2023-06-10T07:21:44;96853.97;;;21.44;87.97
25130;BME280;13308;50.860;13.664;2023-06-10T07:24:09;96854.50;;;21.43;89.28
25130;BME280;13308;50.860;13.664;2023-06-10T07:26:34;96851.38;;;21.41;89.31
25130;BME280;13308;50.860;13.664;2023-06-10T07:29:00;96849.22;;;21.16;91.43
25130;BME280;13308;50.860;13.664;2023-06-10T07:31:25;96855.97;;;21.24;90.87
25130;BME280;13308;50.860;13.664;2023-06-10T07:33:50;96864.00;;;21.31;88.69
25130;BME280;13308;50.860;13.664;2023-06-10T07:36:16;96873.16;;;21.46;89.75
25130;BME280;13308;50.860;13.664;2023-06-10T07:38:41;96869.81;;;21.62;89.06
25130;BME280;13308;50.860;13.664;2023-06-10T07:41:08;96877.56;;;21.67;87.90
25130;BME280;13308;50.860;13.664;2023-06-10T07:43:33;96878.13;;;21.56;89.17
25130;BME280;13308;50.860;13.664;2023-06-10T07:45:58;96879.41;;;21.55;87.74
25130;BME280;13308;50.860;13.664;2023-06-10T07:48:24;96886.84;;;21.73;89.36
25130;BME280;13308;50.860;13.664;2023-06-10T07:50:49;96886.78;;;21.87;88.73
25130;BME280;13308;50.860;13.664;2023-06-10T07:53:15;96883.31;;;21.98;89.00
25130;BME280;13308;50.860;13.664;2023-06-10T07:55:40;96892.97;;;22.57;86.41
25130;BME280;13308;50.860;13.664;2023-06-10T07:58:05;96899.13;;;22.86;85.30
25130;BME280;13308;50.860;13.664;2023-06-10T08:00:31;96895.94;;;22.73;84.41
25130;BME280;13308;50.860;13.664;2023-06-10T08:02:56;96900.28;;;22.49;84.09
25130;BME280;13308;50.860;13.664;2023-06-10T08:05:21;96903.28;;;22.20;85.89
25130;BME280;13308;50.860;13.664;2023-06-10T08:07:47;96900.72;;;22.22;86.76
25130;BME280;13308;50.860;13.664;2023-06-10T08:10:12;96906.13;;;21.85;91.73
25130;BME280;13308;50.860;13.664;2023-06-10T08:12:37;96885.81;;;21.21;95.89
25130;BME280;13308;50.860;13.664;2023-06-10T08:15:03;96897.13;;;21.12;100.00
25130;BME280;13308;50.860;13.664;2023-06-10T08:17:30;96900.16;;;20.94;100.00
25130;BME280;13308;50.860;13.664;2023-06-10T08:19:55;96908.28;;;21.07;100.00
25130;BME280;13308;50.860;13.664;2023-06-10T08:22:21;96917.53;;;20.84;100.00
25130;BME280;13308;50.860;13.664;2023-06-10T08:24:46;96907.47;;;20.63;100.00
25130;BME280;13308;50.860;13.664;2023-06-10T08:27:11;96909.69;;;20.59;100.00
25130;BME280;13308;50.860;13.664;2023-06-10T08:29:37;96917.19;;;20.24;100.00
25130;BME280;13308;50.860;13.664;2023-06-10T08:32:02;96924.75;;;20.09;100.00
25130;BME280;13308;50.860;13.664;2023-06-10T08:34:28;96918.59;;;19.96;100.00
25130;BME280;13308;50.860;13.664;2023-06-10T08:36:53;96905.91;;;19.86;100.00
25130;BME280;13308;50.860;13.664;2023-06-10T08:39:21;96914.75;;;19.70;100.00
25130;BME280;13308;50.860;13.664;2023-06-10T08:44:54;96912.97;;;19.26;100.00
25130;BME280;13308;50.860;13.664;2023-06-10T08:47:23;96901.00;;;19.16;100.00
25130;BME280;13308;50.860;13.664;2023-06-10T08:49:49;96893.97;;;18.88;100.00
25130;BME280;13308;50.860;13.664;2023-06-10T08:52:17;96886.50;;;18.94;100.00
25130;BME280;13308;50.860;13.664;2023-06-10T08:54:48;96883.66;;;19.03;100.00
25130;BME280;13308;50.860;13.664;2023-06-10T08:57:15;96889.34;;;19.27;100.00
25130;BME280;13308;50.860;13.664;2023-06-10T08:59:40;96882.56;;;19.65;100.00
25130;BME280;13308;50.860;13.664;2023-06-10T09:02:06;96889.34;;;20.35;100.00
25130;BME280;13308;50.860;13.664;2023-06-10T09:04:34;96887.69;;;21.30;100.00
25130;BME280;13308;50.860;13.664;2023-06-10T09:07:02;96897.81;;;21.91;100.00
25130;BME280;13308;50.860;13.664;2023-06-10T09:09:28;96901.56;;;22.48;100.00
25130;BME280;13308;50.860;13.664;2023-06-10T09:11:53;96891.63;;;21.52;100.00
25130;BME280;13308;50.860;13.664;2023-06-10T09:14:18;96892.97;;;21.08;100.00
25130;BME280;13308;50.860;13.664;2023-06-10T09:16:44;96901.25;;;21.31;100.00
25130;BME280;13308;50.860;13.664;2023-06-10T09:19:11;96897.19;;;21.18;100.00
25130;BME280;13308;50.860;13.664;2023-06-10T09:21:39;96889.09;;;21.20;100.00
25130;BME280;13308;50.860;13.664;2023-06-10T09:24:05;96895.88;;;21.13;100.00
25130;BME280;13308;50.860;13.664;2023-06-10T09:26:31;96896.06;;;21.10;100.00
25130;BME280;13308;50.860;13.664;2023-06-10T09:29:04;96899.72;;;21.30;100.00
25130;BME280;13308;50.860;13.664;2023-06-10T09:31:30;96901.22;;;21.46;100.00
25130;BME280;13308;50.860;13.664;2023-06-10T09:34:14;96898.56;;;21.57;100.00
25130;BME280;13308;50.860;13.664;2023-06-10T09:36:40;96905.38;;;22.05;100.00
25130;BME280;13308;50.860;13.664;2023-06-10T09:39:18;96912.81;;;22.48;100.00
25130;BME280;13308;50.860;13.664;2023-06-10T09:41:45;96912.34;;;23.06;99.64
25130;BME280;13308;50.860;13.664;2023-06-10T09:44:18;96909.47;;;23.99;96.62
25130;BME280;13308;50.860;13.664;2023-06-10T09:46:50;96921.06;;;24.87;89.61
25130;BME280;13308;50.860;13.664;2023-06-10T09:49:19;96918.28;;;25.53;89.83
25130;BME280;13308;50.860;13.664;2023-06-10T09:51:54;96922.34;;;26.01;85.46
25130;BME280;13308;50.860;13.664;2023-06-10T09:54:21;96921.47;;;26.34;82.33
25130;BME280;13308;50.860;13.664;2023-06-10T09:56:51;96933.59;;;26.80;79.62
25130;BME280;13308;50.860;13.664;2023-06-10T09:59:29;96929.88;;;27.02;80.20
25130;BME280;13308;50.860;13.664;2023-06-10T10:01:56;96935.53;;;27.42;78.59
25130;BME280;13308;50.860;13.664;2023-06-10T10:04:25;96934.66;;;27.53;72.77
25130;BME280;13308;50.860;13.664;2023-06-10T10:06:50;96932.25;;;27.62;72.29
25130;BME280;13308;50.860;13.664;2023-06-10T10:09:16;96933.53;;;27.91;71.68
25130;BME280;13308;50.860;13.664;2023-06-10T10:11:43;96937.22;;;28.10;63.38
25130;BME280;13308;50.860;13.664;2023-06-10T10:14:09;96930.25;;;27.87;69.00
25130;BME280;13308;50.860;13.664;2023-06-10T10:16:40;96933.53;;;27.91;69.71
25130;BME280;13308;50.860;13.664;2023-06-10T10:19:16;96936.41;;;28.39;69.33
25130;BME280;13308;50.860;13.664;2023-06-10T10:21:50;96945.25;;;28.72;65.16
25130;BME280;13308;50.860;13.664;2023-06-10T10:24:32;96939.63;;;27.71;64.35
25130;BME280;13308;50.860;13.664;2023-06-10T10:26:59;96926.97;;;26.72;70.91
25130;BME280;13308;50.860;13.664;2023-06-10T10:29:32;96923.09;;;27.16;71.96
25130;BME280;13308;50.860;13.664;2023-06-10T10:31:59;96924.09;;;27.83;69.95
25130;BME280;13308;50.860;13.664;2023-06-10T10:37:52;96928.94;;;28.12;64.63
25130;BME280;13308;50.860;13.664;2023-06-10T10:40:19;96923.69;;;27.68;63.88
25130;BME280;13308;50.860;13.664;2023-06-10T10:42:47;96929.81;;;27.77;65.76
25130;BME280;13308;50.860;13.664;2023-06-10T10:45:13;96932.00;;;28.14;65.20
25130;BME280;13308;50.860;13.664;2023-06-10T10:47:39;96929.94;;;27.31;67.30
25130;BME280;13308;50.860;13.664;2023-06-10T10:50:23;96927.00;;;26.67;65.31
25130;BME280;13308;50.860;13.664;2023-06-10T10:52:58;96921.75;;;26.82;68.52
25130;BME280;13308;50.860;13.664;2023-06-10T10:55:25;96917.28;;;26.46;67.41
25130;BME280;13308;50.860;13.664;2023-06-10T10:57:59;96925.19;;;26.69;67.52
25130;BME280;13308;50.860;13.664;2023-06-10T11:00:37;96914.38;;;26.68;69.17
25130;BME280;13308;50.860;13.664;2023-06-10T11:05:47;96918.19;;;26.76;68.95
25130;BME280;13308;50.860;13.664;2023-06-10T11:10:57;96905.44;;;27.34;67.21
25130;BME280;13308;50.860;13.664;2023-06-10T11:13:23;96911.00;;;27.74;65.04
25130;BME280;13308;50.860;13.664;2023-06-10T11:15:50;96906.59;;;27.79;67.15
25130;BME280;13308;50.860;13.664;2023-06-10T11:18:28;96911.38;;;27.60;60.08
25130;BME280;13308;50.860;13.664;2023-06-10T11:20:55;96913.63;;;27.96;59.84
25130;BME280;13308;50.860;13.664;2023-06-10T11:26:18;96903.72;;;28.88;57.92
25130;BME280;13308;50.860;13.664;2023-06-10T11:31:33;96899.81;;;29.41;53.82
25130;BME280;13308;50.860;13.664;2023-06-10T11:34:03;96895.75;;;29.68;55.69
25130;BME280;13308;50.860;13.664;2023-06-10T11:36:32;96897.53;;;29.97;54.46
25130;BME280;13308;50.860;13.664;2023-06-10T11:39:00;96887.94;;;30.00;52.40
25130;BME280;13308;50.860;13.664;2023-06-10T11:41:27;96895.56;;;29.79;50.52
25130;BME280;13308;50.860;13.664;2023-06-10T11:43:54;96891.06;;;29.96;50.58
25130;BME280;13308;50.860;13.664;2023-06-10T11:46:22;96892.47;;;29.64;50.62
25130;BME280;13308;50.860;13.664;2023-06-10T11:51:15;96895.16;;;30.01;48.90
25130;BME280;13308;50.860;13.664;2023-06-10T11:53:43;96900.16;;;29.37;50.30
25130;BME280;13308;50.860;13.664;2023-06-10T11:56:09;96891.59;;;29.69;51.72
25130;BME280;13308;50.860;13.664;2023-06-10T11:58:34;96888.50;;;30.11;50.37
25130;BME280;13308;50.860;13.664;2023-06-10T12:00:59;96889.88;;;30.05;48.32
25130;BME280;13308;50.860;13.664;2023-06-10T12:03:27;96893.44;;;29.66;46.95
25130;BME280;13308;50.860;13.664;2023-06-10T12:06:02;96890.50;;;29.59;50.45
25130;BME280;13308;50.860;13.664;2023-06-10T12:08:28;96887.81;;;29.48;49.52
25130;BME280;13308;50.860;13.664;2023-06-10T12:10:54;96895.72;;;29.55;50.63
25130;BME280;13308;50.860;13.664;2023-06-10T12:13:20;96896.88;;;29.91;48.82
25130;BME280;13308;50.860;13.664;2023-06-10T12:15:46;96871.59;;;30.00;48.19
25130;BME280;13308;50.860;13.664;2023-06-10T12:18:19;96886.69;;;30.60;49.31
25130;BME280;13308;50.860;13.664;2023-06-10T12:20:44;96886.09;;;30.88;46.67
25130;BME280;13308;50.860;13.664;2023-06-10T12:23:10;96893.50;;;31.04;46.87
25130;BME280;13308;50.860;13.664;2023-06-10T12:25:36;96878.88;;;30.87;46.46
25130;BME280;13308;50.860;13.664;2023-06-10T12:28:05;96875.81;;;30.85;47.73
25130;BME280;13308;50.860;13.664;2023-06-10T12:30:31;96880.13;;;30.99;46.46
25130;BME280;13308;50.860;13.664;2023-06-10T12:32:57;96878.53;;;31.24;48.31
25130;BME280;13308;50.860;13.664;2023-06-10T12:35:25;96863.22;;;31.14;47.78
25130;BME280;13308;50.860;13.664;2023-06-10T12:38:06;96872.47;;;31.27;44.56
25130;BME280;13308;50.860;13.664;2023-06-10T12:40:37;96863.88;;;31.20;46.26
25130;BME280;13308;50.860;13.664;2023-06-10T12:43:06;96863.09;;;31.40;44.38
25130;BME280;13308;50.860;13.664;2023-06-10T12:45:36;96863.28;;;31.83;45.60
25130;BME280;13308;50.860;13.664;2023-06-10T12:48:24;96865.63;;;32.20;43.56
25130;BME280;13308;50.860;13.664;2023-06-10T12:50:57;96857.59;;;32.82;43.59
25130;BME280;13308;50.860;13.664;2023-06-10T12:53:23;96869.47;;;32.58;43.38
25130;BME280;13308;50.860;13.664;2023-06-10T12:55:49;96853.41;;;32.90;42.14
25130;BME280;13308;50.860;13.664;2023-06-10T12:58:15;96846.22;;;33.12;42.06
25130;BME280;13308;50.860;13.664;2023-06-10T13:00:40;96858.63;;;32.64;42.93
25130;BME280;13308;50.860;13.664;2023-06-10T13:03:08;96858.78;;;32.23;42.79
25130;BME280;13308;50.860;13.664;2023-06-10T13:05:35;96863.84;;;32.37;44.40
25130;BME280;13308;50.860;13.664;2023-06-10T13:08:02;96851.56;;;32.22;45.17
25130;BME280;13308;50.860;13.664;2023-06-10T13:10:28;96873.19;;;32.38;42.10
25130;BME280;13308;50.860;13.664;2023-06-10T13:12:53;96862.00;;;32.90;42.90
25130;BME280;13308;50.860;13.664;2023-06-10T13:15:22;96863.47;;;33.72;41.48
25130;BME280;13308;50.860;13.664;2023-06-10T13:17:47;96863.13;;;33.83;41.15
25130;BME280;13308;50.860;13.664;2023-06-10T13:20:14;96868.78;;;34.20;39.82
25130;BME280;13308;50.860;13.664;2023-06-10T13:22:40;96871.47;;;34.11;39.75
25130;BME280;13308;50.860;13.664;2023-06-10T13:25:06;96872.19;;;34.34;41.79
25130;BME280;13308;50.860;13.664;2023-06-10T13:27:35;96875.56;;;34.70;40.87
25130;BME280;13308;50.860;13.664;2023-06-10T13:30:04;96870.69;;;35.27;37.56
25130;BME280;13308;50.860;13.664;2023-06-10T13:32:30;96878.16;;;35.22;36.87
25130;BME280;13308;50.860;13.664;2023-06-10T13:34:56;96875.34;;;35.46;38.83
25130;BME280;13308;50.860;13.664;2023-06-10T13:37:22;96870.13;;;35.52;37.57
25130;BME280;13308;50.860;13.664;2023-06-10T13:39:47;96873.31;;;34.46;39.48
25130;BME280;13308;50.860;13.664;2023-06-10T13:42:18;96861.94;;;34.08;38.76
25130;BME280;13308;50.860;13.664;2023-06-10T13:44:43;96861.25;;;34.55;37.36
25130;BME280;13308;50.860;13.664;2023-06-10T13:47:10;96868.28;;;34.76;38.50
25130;BME280;13308;50.860;13.664;2023-06-10T13:49:35;96865.13;;;35.28;38.02
25130;BME280;13308;50.860;13.664;2023-06-10T13:52:01;96867.13;;;35.75;37.05
25130;BME280;13308;50.860;13.664;2023-06-10T13:54:27;96865.56;;;35.98;36.49
25130;BME280;13308;50.860;13.664;2023-06-10T13:56:52;96868.28;;;35.96;35.55
25130;BME280;13308;50.860;13.664;2023-06-10T13:59:19;96867.38;;;35.38;36.90
25130;BME280;13308;50.860;13.664;2023-06-10T14:01:44;96869.78;;;36.22;35.73
25130;BME280;13308;50.860;13.664;2023-06-10T14:04:09;96864.69;;;36.30;35.87
25130;BME280;13308;50.860;13.664;2023-06-10T14:06:35;96858.97;;;36.05;33.96
25130;BME280;13308;50.860;13.664;2023-06-10T14:09:00;96861.19;;;36.14;34.20
25130;BME280;13308;50.860;13.664;2023-06-10T14:11:26;96846.13;;;34.62;35.15
25130;BME280;13308;50.860;13.664;2023-06-10T14:13:51;96854.03;;;35.57;36.09
25130;BME280;13308;50.860;13.664;2023-06-10T14:16:17;96850.50;;;35.09;34.98
25130;BME280;13308;50.860;13.664;2023-06-10T14:18:42;96847.31;;;34.59;35.97
25130;BME280;13308;50.860;13.664;2023-06-10T14:21:07;96850.66;;;34.18;34.73
25130;BME280;13308;50.860;13.664;2023-06-10T14:23:33;96852.72;;;34.25;35.66
25130;BME280;13308;50.860;13.664;2023-06-10T14:25:59;96851.25;;;33.71;37.03
25130;BME280;13308;50.860;13.664;2023-06-10T14:28:24;96843.47;;;33.87;35.66
25130;BME280;13308;50.860;13.664;2023-06-10T14:30:51;96848.22;;;33.84;34.71
25130;BME280;13308;50.860;13.664;2023-06-10T14:33:16;96847.97;;;34.27;34.74
25130;BME280;13308;50.860;13.664;2023-06-10T14:35:42;96852.00;;;34.02;33.99
25130;BME280;13308;50.860;13.664;2023-06-10T14:38:08;96841.72;;;33.99;33.01
25130;BME280;13308;50.860;13.664;2023-06-10T14:40:33;96838.06;;;34.06;32.81
25130;BME280;13308;50.860;13.664;2023-06-10T14:42:59;96835.78;;;33.67;31.29
25130;BME280;13308;50.860;13.664;2023-06-10T14:45:26;96842.84;;;34.03;33.60
25130;BME280;13308;50.860;13.664;2023-06-10T14:47:51;96851.47;;;33.81;32.47
25130;BME280;13308;50.860;13.664;2023-06-10T14:50:17;96847.84;;;33.58;32.92
25130;BME280;13308;50.860;13.664;2023-06-10T14:52:42;96839.81;;;33.49;34.00
25130;BME280;13308;50.860;13.664;2023-06-10T14:55:07;96831.53;;;33.08;35.49
25130;BME280;13308;50.860;13.664;2023-06-10T14:57:33;96841.31;;;33.50;32.61
25130;BME280;13308;50.860;13.664;2023-06-10T14:59:58;96846.03;;;33.10;35.08
25130;BME280;13308;50.860;13.664;2023-06-10T15:02:23;96855.66;;;32.77;34.13
25130;BME280;13308;50.860;13.664;2023-06-10T15:04:49;96853.91;;;32.31;36.36
25130;BME280;13308;50.860;13.664;2023-06-10T15:07:14;96854.28;;;33.36;33.52
25130;BME280;13308;50.860;13.664;2023-06-10T15:09:43;96844.19;;;33.50;33.46
25130;BME280;13308;50.860;13.664;2023-06-10T15:12:08;96848.47;;;32.98;34.97
25130;BME280;13308;50.860;13.664;2023-06-10T15:14:34;96836.56;;;32.01;35.76
25130;BME280;13308;50.860;13.664;2023-06-10T15:16:59;96831.09;;;32.38;35.57
25130;BME280;13308;50.860;13.664;2023-06-10T15:19:26;96832.72;;;32.69;36.18
25130;BME280;13308;50.860;13.664;2023-06-10T15:21:52;96842.78;;;32.20;37.07
25130;BME280;13308;50.860;13.664;2023-06-10T15:24:17;96840.94;;;32.30;36.35
25130;BME280;13308;50.860;13.664;2023-06-10T15:26:43;96839.44;;;32.29;36.71
25130;BME280;13308;50.860;13.664;2023-06-10T15:29:08;96834.97;;;32.20;36.95
25130;BME280;13308;50.860;13.664;2023-06-10T15:31:34;96823.88;;;32.09;36.13
25130;BME280;13308;50.860;13.664;2023-06-10T15:34:00;96831.06;;;32.31;36.41
25130;BME280;13308;50.860;13.664;2023-06-10T15:36:25;96833.63;;;32.14;36.03
25130;BME280;13308;50.860;13.664;2023-06-10T15:38:52;96822.81;;;31.92;36.83
25130;BME280;13308;50.860;13.664;2023-06-10T15:41:18;96825.44;;;31.62;37.07
25130;BME280;13308;50.860;13.664;2023-06-10T15:43:43;96820.50;;;31.42;37.78
25130;BME280;13308;50.860;13.664;2023-06-10T15:46:09;96822.75;;;31.36;38.25
25130;BME280;13308;50.860;13.664;2023-06-10T15:48:34;96819.47;;;30.91;38.68
25130;BME280;13308;50.860;13.664;2023-06-10T15:50:59;96821.34;;;30.42;39.19
25130;BME280;13308;50.860;13.664;2023-06-10T15:53:24;96825.63;;;30.82;40.20
25130;BME280;13308;50.860;13.664;2023-06-10T15:55:50;96817.44;;;30.19;40.18
25130;BME280;13308;50.860;13.664;2023-06-10T15:58:15;96817.53;;;30.13;40.51
25130;BME280;13308;50.860;13.664;2023-06-10T16:00:40;96821.47;;;30.23;39.95
25130;BME280;13308;50.860;13.664;2023-06-10T16:03:06;96829.25;;;30.23;40.27
25130;BME280;13308;50.860;13.664;2023-06-10T16:05:31;96821.94;;;30.14;41.17
25130;BME280;13308;50.860;13.664;2023-06-10T16:07:56;96827.94;;;29.72;40.69
25130;BME280;13308;50.860;13.664;2023-06-10T16:10:23;96823.00;;;30.24;41.53
25130;BME280;13308;50.860;13.664;2023-06-10T16:12:49;96825.09;;;30.24;41.44
25130;BME280;13308;50.860;13.664;2023-06-10T16:15:15;96827.94;;;29.72;42.51
25130;BME280;13308;50.860;13.664;2023-06-10T16:17:40;96833.22;;;29.36;41.87
25130;BME280;13308;50.860;13.664;2023-06-10T16:20:06;96833.47;;;29.07;43.22
25130;BME280;13308;50.860;13.664;2023-06-10T16:22:32;96833.25;;;29.05;43.01
25130;BME280;13308;50.860;13.664;2023-06-10T16:24:57;96826.25;;;29.06;44.89
25130;BME280;13308;50.860;13.664;2023-06-10T16:27:22;96824.09;;;29.12;43.10
25130;BME280;13308;50.860;13.664;2023-06-10T16:29:51;96826.22;;;28.56;44.84
25130;BME280;13308;50.860;13.664;2023-06-10T16:32:16;96834.75;;;28.37;45.33
25130;BME280;13308;50.860;13.664;2023-06-10T16:34:41;96837.28;;;27.98;51.98
25130;BME280;13308;50.860;13.664;2023-06-10T16:37:06;96840.69;;;27.14;56.00
25130;BME280;13308;50.860;13.664;2023-06-10T16:39:32;96842.28;;;25.44;66.56
25130;BME280;13308;50.860;13.664;2023-06-10T16:41:57;96845.63;;;25.15;66.97
25130;BME280;13308;50.860;13.664;2023-06-10T16:44:23;96839.38;;;24.23;68.65
25130;BME280;13308;50.860;13.664;2023-06-10T16:46:48;96841.78;;;23.88;70.25
25130;BME280;13308;50.860;13.664;2023-06-10T16:49:13;96842.59;;;23.99;70.41
25130;BME280;13308;50.860;13.664;2023-06-10T16:51:39;96829.78;;;23.98;71.62
25130;BME280;13308;50.860;13.664;2023-06-10T16:54:04;96827.47;;;23.97;75.69
25130;BME280;13308;50.860;13.664;2023-06-10T16:56:29;96827.72;;;23.88;77.91
25130;BME280;13308;50.860;13.664;2023-06-10T16:58:55;96826.06;;;24.40;72.44
25130;BME280;13308;50.860;13.664;2023-06-10T17:01:20;96827.09;;;24.53;71.28
25130;BME280;13308;50.860;13.664;2023-06-10T17:03:46;96828.69;;;24.93;65.45
25130;BME280;13308;50.860;13.664;2023-06-10T17:06:11;96831.78;;;25.06;64.42
25130;BME280;13308;50.860;13.664;2023-06-10T17:08:36;96836.41;;;25.31;71.11
25130;BME280;13308;50.860;13.664;2023-06-10T17:11:02;96838.47;;;25.25;69.55
25130;BME280;13308;50.860;13.664;2023-06-10T17:13:27;96842.06;;;25.42;65.61
25130;BME280;13308;50.860;13.664;2023-06-10T17:15:52;96831.53;;;25.26;68.27
25130;BME280;13308;50.860;13.664;2023-06-10T17:18:18;96842.78;;;25.59;65.22
25130;BME280;13308;50.860;13.664;2023-06-10T17:20:43;96838.91;;;25.62;66.96
25130;BME280;13308;50.860;13.664;2023-06-10T17:23:08;96840.41;;;25.74;68.16
25130;BME280;13308;50.860;13.664;2023-06-10T17:25:35;96844.50;;;25.95;64.67
25130;BME280;13308;50.860;13.664;2023-06-10T17:28:01;96845.78;;;25.94;62.50
25130;BME280;13308;50.860;13.664;2023-06-10T17:30:27;96850.09;;;26.06;64.30
25130;BME280;13308;50.860;13.664;2023-06-10T17:32:52;96847.66;;;25.53;65.42
25130;BME280;13308;50.860;13.664;2023-06-10T17:35:17;96840.00;;;25.37;69.21
25130;BME280;13308;50.860;13.664;2023-06-10T17:37:43;96843.34;;;24.97;70.17
25130;BME280;13308;50.860;13.664;2023-06-10T17:40:09;96838.44;;;25.03;72.05
25130;BME280;13308;50.860;13.664;2023-06-10T17:42:34;96847.94;;;25.22;71.81
25130;BME280;13308;50.860;13.664;2023-06-10T17:45:00;96844.31;;;24.55;68.40
25130;BME280;13308;50.860;13.664;2023-06-10T17:47:25;96845.03;;;24.45;75.00
25130;BME280;13308;50.860;13.664;2023-06-10T17:49:50;96839.41;;;24.45;77.63
25130;BME280;13308;50.860;13.664;2023-06-10T17:52:16;96847.38;;;24.52;73.34
25130;BME280;13308;50.860;13.664;2023-06-10T17:54:41;96850.19;;;24.41;69.46
25130;BME280;13308;50.860;13.664;2023-06-10T17:57:07;96843.94;;;24.15;75.89
